Time;durP1;ratioP1;P1;durP2;ratioP2;P2;SDS_P1;SDS_P2;PMS_P1;PMS_P2;Temp;Humidity;BMP_temperature;BMP_pressure;BME280_temperature;BME280_humidity;BME280_pressure;Samples;Min_cycle;Max_cycle;Signal;HPM_P1;HPM_P2
2023/09/08 00:03:47;;;;;;;;;;;22.30;99.90;;;;;;8374716;28;19978;-70
2023/09/08 00:07:49;;;;;;;;;;;22.30;99.90;;;;;;8367532;28;19924;-70
2023/09/08 00:11:52;;;;;;;;;;;22.30;99.90;;;;;;8364324;28;20378;-70
2023/09/08 00:15:53;;;;;;;;;;;22.30;99.90;;;;;;8354858;28;20286;-70
2023/09/08 00:19:56;;;;;;;;;;;22.30;99.90;;;;;;8379891;28;20385;-70
2023/09/08 00:23:58;;;;;;;;;;;22.20;99.90;;;;;;8374407;28;19986;-70
2023/09/08 00:28:00;;;;;;;;;;;22.20;99.90;;;;;;8370522;28;19931;-70
2023/09/08 00:32:02;;;;;;;;;;;22.20;99.90;;;;;;8374234;28;20415;-70
2023/09/08 00:36:03;;;;;;;;;;;22.20;99.90;;;;;;8378608;28;20012;-70
2023/09/08 00:40:06;;;;;;;;;;;22.10;99.90;;;;;;8371948;28;19925;-70
2023/09/08 00:44:08;;;;;;;;;;;22.10;99.90;;;;;;8373321;28;19924;-70
2023/09/08 00:48:10;;;;;;;;;;;22.00;99.90;;;;;;8357298;28;20114;-70
2023/09/08 00:52:12;;;;;;;;;;;22.00;99.90;;;;;;8369911;28;19928;-70
2023/09/08 00:56:14;;;;;;;;;;;22.00;99.90;;;;;;8378408;28;20360;-70
2023/09/08 01:00:16;;;;;;;;;;;22.00;99.90;;;;;;8365314;28;19924;-70
2023/09/08 01:04:17;;;;;;;;;;;21.90;99.90;;;;;;8371460;28;19963;-70
2023/09/08 01:08:19;;;;;;;;;;;21.90;99.90;;;;;;8376056;28;19924;-70
2023/09/08 01:12:21;;;;;;;;;;;21.90;99.90;;;;;;8369719;28;19929;-70
2023/09/08 01:16:23;;;;;;;;;;;21.80;99.90;;;;;;8378368;28;20376;-70
2023/09/08 01:20:31;;;;;;;;;;;21.80;99.90;;;;;;8373846;28;19971;-70
2023/09/08 01:24:44;;;;;;;;;;;21.80;99.90;;;;;;8384866;28;20030;-70
2023/09/08 01:28:48;;;;;;;;;;;21.80;99.90;;;;;;8377413;28;20469;-70
2023/09/08 01:32:50;;;;;;;;;;;21.80;99.90;;;;;;8381105;28;19925;-70
2023/09/08 01:36:53;;;;;;;;;;;21.80;99.90;;;;;;8373509;28;20372;-70
2023/09/08 01:40:55;;;;;;;;;;;21.80;99.90;;;;;;8384906;28;20355;-70
2023/09/08 01:44:56;;;;;;;;;;;21.70;99.90;;;;;;8382028;28;19924;-70
2023/09/08 01:48:58;;;;;;;;;;;21.70;99.90;;;;;;8372962;28;19978;-70
2023/09/08 01:53:00;;;;;;;;;;;21.70;99.90;;;;;;8375834;28;19924;-70
2023/09/08 01:57:02;;;;;;;;;;;21.70;99.90;;;;;;8380806;28;19933;-70
2023/09/08 02:01:05;;;;;;;;;;;21.60;99.90;;;;;;8380016;28;19962;-70
2023/09/08 02:05:10;;;;;;;;;;;21.60;99.90;;;;;;8367215;28;19935;-70
2023/09/08 02:09:13;;;;;;;;;;;21.50;99.90;;;;;;8372067;28;19924;-70
2023/09/08 02:13:15;;;;;;;;;;;21.50;99.90;;;;;;8367231;28;20406;-70
2023/09/08 02:17:16;;;;;;;;;;;21.50;99.90;;;;;;8375505;28;19925;-70
2023/09/08 02:21:18;;;;;;;;;;;21.40;99.90;;;;;;8382108;28;19925;-70
2023/09/08 02:25:20;;;;;;;;;;;21.40;99.90;;;;;;8369361;28;19924;-70
2023/09/08 02:29:22;;;;;;;;;;;21.30;99.90;;;;;;8374497;28;19971;-70
2023/09/08 02:33:24;;;;;;;;;;;21.30;99.90;;;;;;8380626;28;19932;-70
2023/09/08 02:37:25;;;;;;;;;;;21.20;99.90;;;;;;8363208;28;19932;-70
2023/09/08 02:41:27;;;;;;;;;;;21.20;99.90;;;;;;8383329;28;19925;-70
2023/09/08 02:45:29;;;;;;;;;;;21.20;99.90;;;;;;8380765;28;19924;-70
2023/09/08 02:49:31;;;;;;;;;;;21.20;99.90;;;;;;8375038;28;19955;-70
2023/09/08 02:53:33;;;;;;;;;;;21.20;99.90;;;;;;8370120;28;20443;-70
2023/09/08 02:57:35;;;;;;;;;;;21.20;99.90;;;;;;8371914;28;20625;-70
2023/09/08 03:01:36;;;;;;;;;;;21.10;99.90;;;;;;8375383;28;19983;-70
2023/09/08 03:05:38;;;;;;;;;;;21.10;99.90;;;;;;8376501;28;19967;-70
2023/09/08 03:09:39;;;;;;;;;;;21.00;99.90;;;;;;8360788;28;19978;-70
2023/09/08 03:13:41;;;;;;;;;;;21.00;99.90;;;;;;8371505;28;19928;-71
2023/09/08 03:17:43;;;;;;;;;;;21.00;99.90;;;;;;8378696;28;20386;-70
2023/09/08 03:21:45;;;;;;;;;;;21.00;99.90;;;;;;8375216;28;20450;-70
2023/09/08 03:25:48;;;;;;;;;;;21.00;99.90;;;;;;8383672;28;19925;-71
2023/09/08 03:29:50;;;;;;;;;;;20.90;99.90;;;;;;8377236;28;19925;-70
2023/09/08 03:33:51;;;;;;;;;;;20.90;99.90;;;;;;8373198;28;20368;-70
2023/09/08 03:37:53;;;;;;;;;;;20.80;99.90;;;;;;8370226;28;19928;-70
2023/09/08 03:41:55;;;;;;;;;;;20.80;99.90;;;;;;8377866;28;19936;-70
2023/09/08 03:45:56;;;;;;;;;;;20.70;99.90;;;;;;8373905;28;19924;-70
2023/09/08 03:49:58;;;;;;;;;;;20.70;99.90;;;;;;8380272;28;19925;-70
2023/09/08 03:54:00;;;;;;;;;;;20.60;99.90;;;;;;8376634;28;20072;-70
2023/09/08 03:58:01;;;;;;;;;;;20.60;99.90;;;;;;8372410;28;19925;-70
2023/09/08 04:02:03;;;;;;;;;;;20.50;99.90;;;;;;8380235;28;20357;-70
2023/09/08 04:06:05;;;;;;;;;;;20.50;99.90;;;;;;8377816;28;19925;-70
2023/09/08 04:10:07;;;;;;;;;;;20.50;99.90;;;;;;8376638;28;19938;-70
2023/09/08 04:14:08;;;;;;;;;;;20.40;99.90;;;;;;8373756;28;20347;-70
2023/09/08 04:18:10;;;;;;;;;;;20.40;99.90;;;;;;8375578;28;19928;-70
2023/09/08 04:22:12;;;;;;;;;;;20.30;99.90;;;;;;8372431;28;20394;-70
2023/09/08 04:26:13;;;;;;;;;;;20.30;99.90;;;;;;8377947;28;20383;-70
2023/09/08 04:30:15;;;;;;;;;;;20.30;99.90;;;;;;8361807;28;20383;-70
2023/09/08 04:34:18;;;;;;;;;;;20.30;99.90;;;;;;8351839;28;21259;-70
2023/09/08 04:38:19;;;;;;;;;;;20.30;99.90;;;;;;8365031;28;19932;-70
2023/09/08 04:42:21;;;;;;;;;;;20.20;99.90;;;;;;8377619;28;20505;-70
2023/09/08 04:46:23;;;;;;;;;;;20.20;99.90;;;;;;8372077;28;19933;-70
2023/09/08 04:50:24;;;;;;;;;;;20.20;99.90;;;;;;8378842;28;19986;-70
2023/09/08 04:54:27;;;;;;;;;;;20.20;99.90;;;;;;8373864;28;21596;-70
2023/09/08 04:58:28;;;;;;;;;;;20.10;99.90;;;;;;8376545;28;20418;-71
2023/09/08 05:02:30;;;;;;;;;;;20.10;99.90;;;;;;8382961;28;19924;-70
2023/09/08 05:06:32;;;;;;;;;;;20.10;99.90;;;;;;8374247;28;19925;-71
2023/09/08 05:10:33;;;;;;;;;;;20.00;99.90;;;;;;8384721;28;19928;-70
2023/09/08 05:14:35;;;;;;;;;;;20.00;99.90;;;;;;8369937;28;19940;-70
2023/09/08 05:18:38;;;;;;;;;;;20.00;99.90;;;;;;8371818;28;19935;-70
2023/09/08 05:22:39;;;;;;;;;;;20.00;99.90;;;;;;8373688;28;19924;-70
2023/09/08 05:26:41;;;;;;;;;;;19.90;99.90;;;;;;8376051;28;20292;-71
2023/09/08 05:30:43;;;;;;;;;;;19.90;99.90;;;;;;8355942;28;19925;-71
2023/09/08 05:34:44;;;;;;;;;;;19.90;99.90;;;;;;8375802;28;20346;-71
2023/09/08 05:38:46;;;;;;;;;;;19.90;99.90;;;;;;8376615;28;19924;-71
2023/09/08 05:42:48;;;;;;;;;;;19.90;99.90;;;;;;8373874;28;19925;-71
2023/09/08 05:46:49;;;;;;;;;;;20.00;99.90;;;;;;8369299;28;19986;-71
2023/09/08 05:50:51;;;;;;;;;;;20.00;99.90;;;;;;8373239;28;19935;-71
2023/09/08 05:54:53;;;;;;;;;;;20.10;99.90;;;;;;8373670;28;19968;-71
2023/09/08 05:58:54;;;;;;;;;;;20.10;99.90;;;;;;8383287;28;19931;-71
2023/09/08 06:02:56;;;;;;;;;;;20.20;99.90;;;;;;8382618;28;19924;-71
2023/09/08 06:06:58;;;;;;;;;;;20.30;99.90;;;;;;8379999;28;19993;-71
2023/09/08 06:10:59;;;;;;;;;;;20.30;99.90;;;;;;8384762;28;20283;-71
2023/09/08 06:15:04;;;;;;;;;;;20.40;99.90;;;;;;8376007;28;20449;-71
2023/09/08 06:19:06;;;;;;;;;;;20.40;99.90;;;;;;8372338;28;20026;-71
2023/09/08 06:23:07;;;;;;;;;;;20.40;99.90;;;;;;8364876;28;19928;-70
2023/09/08 06:27:11;;;;;;;;;;;20.50;99.90;;;;;;8375543;28;19929;-71
2023/09/08 06:31:14;;;;;;;;;;;20.60;99.90;;;;;;8378806;28;19982;-70
2023/09/08 06:35:16;;;;;;;;;;;20.70;99.90;;;;;;8376163;28;20359;-70
2023/09/08 06:39:17;;;;;;;;;;;20.70;99.90;;;;;;8371858;28;19924;-70
2023/09/08 06:43:19;;;;;;;;;;;20.80;99.90;;;;;;8357522;28;19964;-70
2023/09/08 06:47:21;;;;;;;;;;;20.80;99.90;;;;;;8380584;28;19925;-71
2023/09/08 06:51:22;;;;;;;;;;;21.00;99.90;;;;;;8376453;28;19924;-71
2023/09/08 06:55:24;;;;;;;;;;;21.00;99.90;;;;;;8374582;28;19929;-71
2023/09/08 06:59:26;;;;;;;;;;;21.00;99.90;;;;;;8379080;28;19931;-71
2023/09/08 07:03:27;;;;;;;;;;;21.10;99.90;;;;;;8357056;28;20404;-70
2023/09/08 07:07:29;;;;;;;;;;;21.10;99.90;;;;;;8372424;28;19924;-70
2023/09/08 07:11:31;;;;;;;;;;;21.20;99.90;;;;;;8376858;28;19932;-71
2023/09/08 07:15:32;;;;;;;;;;;21.30;99.90;;;;;;8372459;28;19924;-71
2023/09/08 07:19:34;;;;;;;;;;;21.40;99.90;;;;;;8378845;28;20057;-71
2023/09/08 07:23:37;;;;;;;;;;;21.40;99.90;;;;;;8353866;28;20373;-70
2023/09/08 07:27:38;;;;;;;;;;;21.50;99.90;;;;;;8367309;28;19936;-71
2023/09/08 07:31:40;;;;;;;;;;;21.60;99.90;;;;;;8372900;28;19925;-71
2023/09/08 07:35:42;;;;;;;;;;;21.70;99.90;;;;;;8377795;28;19934;-71
2023/09/08 07:39:43;;;;;;;;;;;21.70;99.90;;;;;;8380690;28;19989;-70
2023/09/08 07:43:45;;;;;;;;;;;21.80;99.90;;;;;;8382896;28;19994;-71
2023/09/08 07:47:47;;;;;;;;;;;21.90;99.90;;;;;;8378707;28;19928;-71
2023/09/08 07:51:49;;;;;;;;;;;21.90;99.90;;;;;;8375612;28;19924;-71
2023/09/08 07:55:50;;;;;;;;;;;22.00;99.90;;;;;;8374480;28;19925;-71
2023/09/08 07:59:52;;;;;;;;;;;22.10;99.90;;;;;;8379305;28;20015;-71
2023/09/08 08:03:54;;;;;;;;;;;22.20;99.90;;;;;;8371085;28;19929;-71
2023/09/08 08:07:55;;;;;;;;;;;22.30;99.90;;;;;;8372723;28;19928;-71
2023/09/08 08:11:57;;;;;;;;;;;22.50;99.90;;;;;;8378115;28;19924;-70
2023/09/08 08:15:59;;;;;;;;;;;22.60;99.90;;;;;;8372134;28;19931;-70
2023/09/08 08:20:16;;;;;;;;;;;22.70;99.90;;;;;;8375961;28;20285;-70
2023/09/08 08:24:19;;;;;;;;;;;22.80;99.90;;;;;;8368110;28;19932;-71
2023/09/08 08:28:21;;;;;;;;;;;22.90;99.90;;;;;;8375954;28;20265;-71
2023/09/08 08:32:22;;;;;;;;;;;23.00;99.90;;;;;;8367722;28;20303;-71
2023/09/08 08:36:24;;;;;;;;;;;23.10;99.90;;;;;;8374101;28;19928;-71
2023/09/08 08:40:26;;;;;;;;;;;23.20;99.90;;;;;;8386073;28;19925;-71
2023/09/08 08:44:28;;;;;;;;;;;23.30;99.90;;;;;;8383925;28;20596;-72
2023/09/08 08:48:31;;;;;;;;;;;23.50;99.90;;;;;;8377161;28;20599;-71
2023/09/08 08:52:33;;;;;;;;;;;23.50;99.90;;;;;;8378510;28;20374;-71
2023/09/08 08:56:35;;;;;;;;;;;23.60;99.90;;;;;;8355448;28;19925;-71
2023/09/08 09:00:37;;;;;;;;;;;23.80;99.90;;;;;;8374280;28;20150;-71
2023/09/08 09:04:39;;;;;;;;;;;23.80;99.90;;;;;;8366874;28;19924;-70
2023/09/08 09:08:45;;;;;;;;;;;23.90;99.90;;;;;;8359867;28;19950;-71
2023/09/08 09:12:46;;;;;;;;;;;24.00;99.90;;;;;;8381804;28;19925;-70
2023/09/08 09:16:48;;;;;;;;;;;24.20;99.90;;;;;;8372807;28;19925;-71
2023/09/08 09:20:54;;;;;;;;;;;24.30;99.90;;;;;;8368549;28;20233;-70
2023/09/08 09:24:56;;;;;;;;;;;24.30;99.90;;;;;;8378151;28;19972;-71
2023/09/08 09:28:59;;;;;;;;;;;24.40;99.90;;;;;;8377595;28;19925;-70
2023/09/08 09:33:02;;;;;;;;;;;24.60;99.90;;;;;;8381826;28;19948;-70
2023/09/08 09:37:05;;;;;;;;;;;24.60;99.90;;;;;;8374074;28;20441;-71
2023/09/08 09:41:06;;;;;;;;;;;24.70;99.90;;;;;;8364338;28;19952;-71
2023/09/08 09:45:08;;;;;;;;;;;24.80;99.90;;;;;;8368398;28;19932;-70
2023/09/08 09:49:12;;;;;;;;;;;24.80;99.90;;;;;;8384533;28;19928;-71
2023/09/08 09:53:14;;;;;;;;;;;24.90;99.90;;;;;;8372436;28;20395;-71
2023/09/08 09:57:16;;;;;;;;;;;25.00;99.90;;;;;;8376581;28;19928;-70
2023/09/08 10:01:18;;;;;;;;;;;25.10;99.90;;;;;;8353953;28;19925;-71
2023/09/08 10:05:20;;;;;;;;;;;25.20;99.90;;;;;;8388028;28;20299;-71
2023/09/08 10:09:22;;;;;;;;;;;25.30;99.90;;;;;;8352071;28;19947;-71
2023/09/08 10:13:27;;;;;;;;;;;25.40;99.90;;;;;;8375639;28;19929;-71
2023/09/08 10:17:30;;;;;;;;;;;25.50;99.90;;;;;;8379826;28;19970;-72
2023/09/08 10:21:32;;;;;;;;;;;25.60;99.90;;;;;;8374483;28;20333;-70
2023/09/08 10:25:35;;;;;;;;;;;25.70;99.90;;;;;;8365528;28;20308;-71
2023/09/08 10:29:37;;;;;;;;;;;25.80;99.90;;;;;;8382983;28;19924;-71
2023/09/08 10:33:39;;;;;;;;;;;25.90;99.90;;;;;;8379166;28;19935;-71
2023/09/08 10:37:41;;;;;;;;;;;26.00;99.90;;;;;;8376675;28;19928;-71
2023/09/08 10:41:44;;;;;;;;;;;26.00;99.90;;;;;;8377486;28;19925;-71
2023/09/08 10:45:46;;;;;;;;;;;26.10;99.90;;;;;;8364845;28;19932;-71
2023/09/08 10:49:50;;;;;;;;;;;26.20;99.90;;;;;;8380041;28;19959;-71
2023/09/08 10:53:51;;;;;;;;;;;26.30;99.90;;;;;;8380541;28;19929;-71
2023/09/08 10:57:54;;;;;;;;;;;26.40;99.90;;;;;;8372986;28;20369;-71
2023/09/08 11:01:56;;;;;;;;;;;26.50;99.90;;;;;;8371893;28;20376;-71
2023/09/08 11:05:57;;;;;;;;;;;26.60;99.90;;;;;;8373103;28;20249;-71
2023/09/08 11:09:59;;;;;;;;;;;26.70;99.90;;;;;;8363782;28;19931;-71
2023/09/08 11:14:01;;;;;;;;;;;26.80;99.90;;;;;;8373054;28;19925;-71
2023/09/08 11:18:07;;;;;;;;;;;26.90;99.90;;;;;;8368479;28;20439;-71
2023/09/08 11:22:08;;;;;;;;;;;27.00;99.90;;;;;;8367319;28;20395;-71
2023/09/08 11:26:11;;;;;;;;;;;27.00;99.90;;;;;;8377751;28;19924;-70
2023/09/08 11:30:13;;;;;;;;;;;27.10;99.90;;;;;;8368277;28;20351;-71
2023/09/08 11:34:16;;;;;;;;;;;27.20;99.90;;;;;;8368339;28;20379;-71
2023/09/08 11:38:18;;;;;;;;;;;27.30;99.90;;;;;;8369457;28;19939;-71
2023/09/08 11:42:21;;;;;;;;;;;27.30;99.90;;;;;;8377024;28;19924;-70
2023/09/08 11:46:22;;;;;;;;;;;27.40;99.90;;;;;;8372567;28;19924;-70
2023/09/08 11:50:24;;;;;;;;;;;27.50;99.90;;;;;;8373369;28;20386;-70
2023/09/08 11:54:26;;;;;;;;;;;27.60;99.90;;;;;;8366916;28;19925;-71
2023/09/08 11:58:29;;;;;;;;;;;27.60;99.90;;;;;;8365788;28;20296;-71
2023/09/08 12:02:37;;;;;;;;;;;27.70;99.90;;;;;;8382018;28;19928;-71
2023/09/08 12:06:39;;;;;;;;;;;27.70;99.90;;;;;;8372195;28;19951;-72
2023/09/08 12:10:41;;;;;;;;;;;27.70;99.90;;;;;;8375990;28;19932;-71
2023/09/08 12:14:43;;;;;;;;;;;27.70;99.90;;;;;;8366991;28;19925;-71
2023/09/08 12:18:49;;;;;;;;;;;27.80;99.90;;;;;;8370481;28;19938;-71
2023/09/08 12:22:51;;;;;;;;;;;27.90;99.90;;;;;;8368292;28;19981;-71
2023/09/08 12:26:53;;;;;;;;;;;27.90;99.90;;;;;;8379369;28;19924;-72
2023/09/08 12:30:54;;;;;;;;;;;27.90;99.90;;;;;;8369721;28;20345;-71
2023/09/08 12:34:57;;;;;;;;;;;28.00;99.90;;;;;;8372473;28;20023;-71
2023/09/08 12:38:59;;;;;;;;;;;28.00;99.90;;;;;;8377521;28;19943;-71
2023/09/08 12:43:00;;;;;;;;;;;28.10;99.90;;;;;;8376592;28;19986;-71
2023/09/08 12:47:08;;;;;;;;;;;28.20;99.90;;;;;;8377449;28;20327;-72
2023/09/08 12:51:10;;;;;;;;;;;28.20;99.90;;;;;;8370336;28;19972;-71
2023/09/08 12:55:12;;;;;;;;;;;28.20;99.90;;;;;;8376947;28;19932;-71
2023/09/08 12:59:13;;;;;;;;;;;28.20;99.90;;;;;;8384798;28;19955;-71
2023/09/08 13:03:15;;;;;;;;;;;28.30;99.90;;;;;;8381702;28;20380;-71
2023/09/08 13:07:17;;;;;;;;;;;28.30;99.90;;;;;;8380786;28;19929;-71
2023/09/08 13:11:19;;;;;;;;;;;28.40;99.90;;;;;;8377924;28;20334;-71
2023/09/08 13:15:21;;;;;;;;;;;28.40;99.90;;;;;;8384382;28;19924;-71
2023/09/08 13:19:22;;;;;;;;;;;28.50;99.90;;;;;;8380652;28;19925;-71
2023/09/08 13:23:24;;;;;;;;;;;28.60;99.90;;;;;;8381483;28;20367;-71
2023/09/08 13:27:25;;;;;;;;;;;28.60;99.90;;;;;;8376765;28;19928;-70
2023/09/08 13:31:27;;;;;;;;;;;28.60;99.90;;;;;;8380572;28;19982;-71
2023/09/08 13:35:29;;;;;;;;;;;28.70;99.90;;;;;;8390710;28;19947;-72
2023/09/08 13:39:30;;;;;;;;;;;28.70;99.90;;;;;;8380731;28;19931;-71
2023/09/08 13:43:32;;;;;;;;;;;28.80;99.90;;;;;;8376175;28;21286;-71
2023/09/08 13:47:36;;;;;;;;;;;28.80;99.90;;;;;;8369751;28;19924;-71
2023/09/08 13:51:38;;;;;;;;;;;28.90;99.90;;;;;;8376173;28;20302;-71
2023/09/08 13:55:40;;;;;;;;;;;28.90;99.90;;;;;;8369239;28;19933;-71
2023/09/08 13:59:45;;;;;;;;;;;29.00;99.90;;;;;;8371608;28;19929;-71
2023/09/08 14:03:51;;;;;;;;;;;29.10;99.90;;;;;;8386419;28;20030;-71
2023/09/08 14:07:56;;;;;;;;;;;29.10;99.90;;;;;;8384927;28;19928;-71
2023/09/08 14:12:09;;;;;;;;;;;29.20;99.90;;;;;;8375125;28;21218;-71
2023/09/08 14:16:13;;;;;;;;;;;29.30;99.90;;;;;;8382318;28;19932;-72
2023/09/08 14:20:15;;;;;;;;;;;29.40;99.90;;;;;;8390323;28;20436;-71
2023/09/08 14:24:17;;;;;;;;;;;29.40;99.90;;;;;;8379565;28;19931;-71
2023/09/08 14:28:18;;;;;;;;;;;29.50;99.90;;;;;;8378798;28;20504;-72
2023/09/08 14:32:20;;;;;;;;;;;29.50;99.90;;;;;;8361182;28;20288;-71
2023/09/08 14:36:22;;;;;;;;;;;29.50;99.90;;;;;;8370689;28;19925;-72
2023/09/08 14:40:24;;;;;;;;;;;29.50;99.90;;;;;;8374029;28;19928;-72
2023/09/08 14:44:26;;;;;;;;;;;29.60;99.90;;;;;;8378525;28;20356;-72
2023/09/08 14:48:27;;;;;;;;;;;29.70;99.90;;;;;;8371322;28;19924;-72
2023/09/08 14:52:29;;;;;;;;;;;29.70;99.90;;;;;;8375317;28;19924;-72
2023/09/08 14:56:31;;;;;;;;;;;29.80;99.90;;;;;;8380238;28;19967;-71
2023/09/08 15:00:32;;;;;;;;;;;29.80;99.90;;;;;;8367243;28;19925;-72
2023/09/08 15:04:34;;;;;;;;;;;29.80;99.90;;;;;;8358277;28;19940;-71
2023/09/08 15:08:36;;;;;;;;;;;29.80;99.90;;;;;;8377475;28;21911;-72
2023/09/08 15:12:38;;;;;;;;;;;29.80;99.90;;;;;;8375199;28;19955;-72
2023/09/08 15:16:39;;;;;;;;;;;29.80;99.90;;;;;;8372888;28;20312;-72
2023/09/08 15:20:41;;;;;;;;;;;29.90;99.90;;;;;;8370437;28;19924;-72
2023/09/08 15:24:43;;;;;;;;;;;30.00;99.90;;;;;;8371777;28;19924;-72
2023/09/08 15:28:44;;;;;;;;;;;30.00;99.90;;;;;;8371463;28;20306;-72
2023/09/08 15:32:46;;;;;;;;;;;30.00;99.90;;;;;;8379256;28;19928;-72
2023/09/08 15:36:49;;;;;;;;;;;30.20;99.90;;;;;;8371534;28;19932;-72
2023/09/08 15:41:06;;;;;;;;;;;30.40;99.90;;;;;;8373051;28;19924;-72
2023/09/08 15:45:08;;;;;;;;;;;30.50;99.90;;;;;;8378307;28;19929;-72
2023/09/08 15:49:10;;;;;;;;;;;30.50;99.90;;;;;;8374241;28;19952;-72
2023/09/08 15:53:11;;;;;;;;;;;30.40;99.90;;;;;;8371410;28;20407;-72
2023/09/08 15:57:13;;;;;;;;;;;30.30;99.90;;;;;;8373813;28;19931;-72
2023/09/08 16:01:15;;;;;;;;;;;30.30;99.90;;;;;;8371127;28;20379;-72
2023/09/08 16:05:16;;;;;;;;;;;30.20;99.90;;;;;;8370599;28;19934;-72
2023/09/08 16:09:18;;;;;;;;;;;30.20;99.90;;;;;;8380375;28;19935;-72
2023/09/08 16:13:20;;;;;;;;;;;30.10;99.90;;;;;;8371986;28;19924;-72
2023/09/08 16:17:22;;;;;;;;;;;30.20;99.90;;;;;;8376460;28;19997;-72
2023/09/08 16:21:23;;;;;;;;;;;30.30;99.90;;;;;;8376595;28;19932;-72
2023/09/08 16:25:25;;;;;;;;;;;30.40;99.90;;;;;;8373988;28;20015;-73
2023/09/08 16:29:27;;;;;;;;;;;30.40;99.90;;;;;;8376693;28;19925;-73
2023/09/08 16:33:28;;;;;;;;;;;30.40;99.90;;;;;;8356853;28;19932;-73
2023/09/08 16:37:30;;;;;;;;;;;30.30;99.90;;;;;;8372170;28;19929;-73
2023/09/08 16:41:31;;;;;;;;;;;30.30;99.90;;;;;;8352782;28;19929;-73
2023/09/08 16:45:33;;;;;;;;;;;30.20;99.90;;;;;;8372715;28;19979;-73
2023/09/08 16:49:35;;;;;;;;;;;30.20;99.90;;;;;;8373376;28;19932;-73
2023/09/08 16:53:36;;;;;;;;;;;30.20;99.90;;;;;;8366235;28;20400;-73
2023/09/08 16:57:39;;;;;;;;;;;30.30;99.90;;;;;;8371093;28;19928;-73
2023/09/08 17:01:40;;;;;;;;;;;30.40;99.90;;;;;;8370002;28;19924;-73
2023/09/08 17:05:42;;;;;;;;;;;30.60;99.90;;;;;;8372554;28;19925;-73
2023/09/08 17:09:44;;;;;;;;;;;30.70;99.90;;;;;;8375269;28;20387;-73
2023/09/08 17:13:47;;;;;;;;;;;30.70;99.90;;;;;;8373482;28;20450;-73
2023/09/08 17:17:48;;;;;;;;;;;30.60;99.90;;;;;;8377793;28;19931;-73
2023/09/08 17:21:50;;;;;;;;;;;30.50;99.90;;;;;;8379745;28;20375;-73
2023/09/08 17:25:52;;;;;;;;;;;30.20;99.90;;;;;;8377782;28;19924;-73
2023/09/08 17:29:54;;;;;;;;;;;29.90;99.90;;;;;;8379124;28;19992;-73
2023/09/08 17:33:56;;;;;;;;;;;29.60;99.90;;;;;;8373648;28;20334;-73
2023/09/08 17:37:57;;;;;;;;;;;29.20;99.90;;;;;;8384602;28;19928;-73
2023/09/08 17:41:59;;;;;;;;;;;29.00;99.90;;;;;;8371038;28;19978;-73
2023/09/08 17:46:01;;;;;;;;;;;28.70;99.90;;;;;;8382409;28;19925;-72
2023/09/08 17:50:05;;;;;;;;;;;28.50;99.90;;;;;;8384054;28;19924;-73
2023/09/08 17:54:07;;;;;;;;;;;28.30;99.90;;;;;;8381074;28;19924;-72
2023/09/08 17:58:08;;;;;;;;;;;28.10;99.90;;;;;;8371824;28;19935;-72
2023/09/08 18:02:10;;;;;;;;;;;27.90;99.90;;;;;;8383871;28;20016;-72
2023/09/08 18:06:12;;;;;;;;;;;27.80;99.90;;;;;;8382401;28;20059;-72
2023/09/08 18:10:13;;;;;;;;;;;27.60;99.90;;;;;;8388351;28;19950;-72
2023/09/08 18:14:16;;;;;;;;;;;27.50;99.90;;;;;;8384292;28;19924;-72
2023/09/08 18:18:19;;;;;;;;;;;27.40;99.90;;;;;;8382218;28;20335;-72
2023/09/08 18:22:21;;;;;;;;;;;27.30;99.90;;;;;;8376446;28;19929;-72
2023/09/08 18:26:22;;;;;;;;;;;27.20;99.90;;;;;;8384624;28;20167;-72
2023/09/08 18:30:24;;;;;;;;;;;27.10;99.90;;;;;;8374417;28;20277;-72
2023/09/08 18:34:28;;;;;;;;;;;27.00;99.90;;;;;;8383955;28;20387;-72
2023/09/08 18:38:31;;;;;;;;;;;26.90;99.90;;;;;;8372127;28;19925;-72
2023/09/08 18:42:33;;;;;;;;;;;26.80;99.90;;;;;;8379148;28;20014;-72
2023/09/08 18:46:34;;;;;;;;;;;26.70;99.90;;;;;;8373808;28;20372;-72
2023/09/08 18:50:36;;;;;;;;;;;26.60;99.90;;;;;;8378287;28;19959;-72
2023/09/08 18:54:39;;;;;;;;;;;26.50;99.90;;;;;;8370299;28;19928;-72
2023/09/08 18:58:41;;;;;;;;;;;26.40;99.90;;;;;;8382860;28;19931;-72
2023/09/08 19:02:42;;;;;;;;;;;26.30;99.90;;;;;;8365373;28;19928;-72
2023/09/08 19:06:44;;;;;;;;;;;26.30;99.90;;;;;;8380565;28;19932;-72
2023/09/08 19:10:46;;;;;;;;;;;26.20;99.90;;;;;;8373559;28;19925;-72
2023/09/08 19:14:48;;;;;;;;;;;26.10;99.90;;;;;;8382728;28;19925;-72
2023/09/08 19:18:49;;;;;;;;;;;26.00;99.90;;;;;;8381585;28;20273;-72
2023/09/08 19:22:51;;;;;;;;;;;26.00;99.90;;;;;;8375384;28;19970;-72
2023/09/08 19:26:53;;;;;;;;;;;25.80;99.90;;;;;;8368860;28;20295;-72
2023/09/08 19:30:54;;;;;;;;;;;25.80;99.90;;;;;;8371476;28;20441;-72
2023/09/08 19:34:56;;;;;;;;;;;25.70;99.90;;;;;;8357811;28;19924;-72
2023/09/08 19:38:59;;;;;;;;;;;25.60;99.90;;;;;;8372811;28;19932;-72
2023/09/08 19:43:00;;;;;;;;;;;25.50;99.90;;;;;;8380407;28;20401;-72
2023/09/08 19:47:02;;;;;;;;;;;25.50;99.90;;;;;;8365484;28;19925;-72
2023/09/08 19:51:04;;;;;;;;;;;25.40;99.90;;;;;;8383098;28;19924;-72
2023/09/08 19:55:07;;;;;;;;;;;25.40;99.90;;;;;;8383262;28;20371;-72
2023/09/08 19:59:09;;;;;;;;;;;25.30;99.90;;;;;;8375294;28;20287;-72
2023/09/08 20:03:10;;;;;;;;;;;25.30;99.90;;;;;;8377200;28;20508;-72
2023/09/08 20:07:12;;;;;;;;;;;25.20;99.90;;;;;;8377417;28;19925;-72
2023/09/08 20:11:14;;;;;;;;;;;25.10;99.90;;;;;;8383413;28;19924;-72
2023/09/08 20:15:16;;;;;;;;;;;25.00;99.90;;;;;;8370787;28;19943;-72
2023/09/08 20:19:17;;;;;;;;;;;24.90;99.90;;;;;;8369785;28;19932;-72
2023/09/08 20:23:19;;;;;;;;;;;24.80;99.90;;;;;;8373526;28;19932;-72
2023/09/08 20:27:21;;;;;;;;;;;24.80;99.90;;;;;;8373472;28;19933;-71
2023/09/08 20:31:23;;;;;;;;;;;24.70;99.90;;;;;;8369902;28;19925;-71
2023/09/08 20:35:24;;;;;;;;;;;24.70;99.90;;;;;;8371367;28;19963;-72
2023/09/08 20:39:26;;;;;;;;;;;24.70;99.90;;;;;;8373886;28;19929;-71
2023/09/08 20:43:28;;;;;;;;;;;24.60;99.90;;;;;;8375263;28;20054;-72
2023/09/08 20:47:30;;;;;;;;;;;24.60;99.90;;;;;;8377776;28;19932;-72
2023/09/08 20:51:31;;;;;;;;;;;24.50;99.90;;;;;;8363963;28;19933;-72
2023/09/08 20:55:33;;;;;;;;;;;24.50;99.90;;;;;;8381494;28;19929;-71
2023/09/08 20:59:35;;;;;;;;;;;24.50;99.90;;;;;;8370453;28;19947;-72
2023/09/08 21:03:37;;;;;;;;;;;24.40;99.90;;;;;;8371593;28;19946;-71
2023/09/08 21:07:39;;;;;;;;;;;24.20;99.90;;;;;;8366740;28;19939;-71
2023/09/08 21:11:40;;;;;;;;;;;24.10;99.90;;;;;;8374696;28;19990;-71
2023/09/08 21:15:42;;;;;;;;;;;24.10;99.90;;;;;;8363280;28;20342;-71
2023/09/08 21:19:44;;;;;;;;;;;24.00;99.90;;;;;;8372212;28;19959;-71
2023/09/08 21:23:46;;;;;;;;;;;24.00;99.90;;;;;;8377169;28;20411;-71
2023/09/08 21:27:48;;;;;;;;;;;24.00;99.90;;;;;;8379603;28;20398;-71
2023/09/08 21:31:49;;;;;;;;;;;24.00;99.90;;;;;;8365706;28;19924;-71
2023/09/08 21:35:51;;;;;;;;;;;23.90;99.90;;;;;;8379227;28;19924;-71
2023/09/08 21:39:53;;;;;;;;;;;23.90;99.90;;;;;;8374383;28;19924;-71
2023/09/08 21:43:54;;;;;;;;;;;23.80;99.90;;;;;;8385711;28;19928;-71
2023/09/08 21:47:56;;;;;;;;;;;23.80;99.90;;;;;;8369075;28;19982;-71
2023/09/08 21:52:01;;;;;;;;;;;23.70;99.90;;;;;;8373469;28;19928;-71
2023/09/08 21:56:03;;;;;;;;;;;23.80;99.90;;;;;;8373244;28;19956;-71
2023/09/08 22:00:05;;;;;;;;;;;23.70;99.90;;;;;;8377384;28;19925;-71
2023/09/08 22:04:08;;;;;;;;;;;23.60;99.90;;;;;;8372135;28;19929;-71
2023/09/08 22:08:10;;;;;;;;;;;23.50;99.90;;;;;;8379018;28;19925;-71
2023/09/08 22:12:14;;;;;;;;;;;23.50;99.90;;;;;;8370376;28;19932;-71
2023/09/08 22:16:16;;;;;;;;;;;23.40;99.90;;;;;;8377233;28;19924;-71
2023/09/08 22:20:18;;;;;;;;;;;23.40;99.90;;;;;;8359434;28;19930;-71
2023/09/08 22:24:19;;;;;;;;;;;23.40;99.90;;;;;;8374006;28;19952;-71
2023/09/08 22:28:21;;;;;;;;;;;23.30;99.90;;;;;;8378915;28;19924;-71
2023/09/08 22:32:23;;;;;;;;;;;23.20;99.90;;;;;;8378632;28;19979;-71
2023/09/08 22:36:25;;;;;;;;;;;23.00;99.90;;;;;;8375690;28;20054;-72
2023/09/08 22:40:27;;;;;;;;;;;23.00;99.90;;;;;;8369069;28;20232;-71
2023/09/08 22:44:28;;;;;;;;;;;22.90;99.90;;;;;;8370229;28;20441;-71
2023/09/08 22:48:32;;;;;;;;;;;22.90;99.90;;;;;;8381258;28;19963;-71
2023/09/08 22:52:34;;;;;;;;;;;22.80;99.90;;;;;;8373759;28;19931;-71
2023/09/08 22:56:35;;;;;;;;;;;22.80;99.90;;;;;;8372207;28;19944;-71
2023/09/08 23:00:37;;;;;;;;;;;22.70;99.90;;;;;;8365787;28;20356;-71
2023/09/08 23:04:39;;;;;;;;;;;22.70;99.90;;;;;;8373134;28;19928;-71
2023/09/08 23:08:40;;;;;;;;;;;22.60;99.90;;;;;;8373219;28;19924;-71
2023/09/08 23:12:42;;;;;;;;;;;22.50;99.90;;;;;;8368096;28;19924;-71
2023/09/08 23:16:44;;;;;;;;;;;22.50;99.90;;;;;;8368626;28;19989;-71
2023/09/08 23:20:47;;;;;;;;;;;22.40;99.90;;;;;;8371434;28;19925;-71
2023/09/08 23:24:49;;;;;;;;;;;22.40;99.90;;;;;;8371319;28;19940;-71
2023/09/08 23:28:54;;;;;;;;;;;22.40;99.90;;;;;;8368648;28;19924;-71